Time;durP1;ratioP1;P1;durP2;ratioP2;P2;SDS_P1;SDS_P2;PMS_P1;PMS_P2;Temp;Humidity;BMP_temperature;BMP_pressure;BME280_temperature;BME280_humidity;BME280_pressure;Samples;Min_cycle;Max_cycle;Signal;HPM_P1;HPM_P2
2021/05/05 00:01:50;;;;;;;4.17;1.70;;;13.70;55.70;;;;;;4985418;28;20283;-72
2021/05/05 00:04:17;;;;;;;2.97;1.60;;;13.70;56.30;;;;;;4987289;28;20224;-72
2021/05/05 00:06:45;;;;;;;1.90;1.60;;;13.70;56.60;;;;;;4985370;28;20224;-72
2021/05/05 00:09:13;;;;;;;3.07;1.50;;;13.70;56.90;;;;;;4986965;28;20237;-72
2021/05/05 00:11:43;;;;;;;3.30;1.90;;;13.70;56.90;;;;;;4984849;28;20252;-72
2021/05/05 00:14:12;;;;;;;2.00;1.70;;;13.60;55.60;;;;;;4987561;28;20221;-72
2021/05/05 00:16:39;;;;;;;3.60;1.57;;;13.50;55.80;;;;;;4983423;28;20221;-72
2021/05/05 00:19:06;;;;;;;3.73;1.90;;;13.50;56.50;;;;;;4986502;28;20306;-72
2021/05/05 00:21:34;;;;;;;3.23;1.63;;;13.40;57.60;;;;;;4983595;28;20372;-72
2021/05/05 00:24:02;;;;;;;3.80;1.63;;;13.30;57.10;;;;;;4987260;28;20296;-72
2021/05/05 00:26:30;;;;;;;2.30;1.67;;;13.20;57.20;;;;;;4983292;28;20228;-72
2021/05/05 00:28:56;;;;;;;6.30;1.97;;;13.10;58.00;;;;;;4983591;28;20240;-72
2021/05/05 00:31:24;;;;;;;5.53;2.13;;;13.00;58.70;;;;;;4987498;28;20224;-72
2021/05/05 00:33:51;;;;;;;4.10;2.10;;;13.00;58.30;;;;;;4987042;28;20224;-72
2021/05/05 00:36:18;;;;;;;2.30;1.67;;;13.00;58.10;;;;;;4986991;28;20220;-72
2021/05/05 00:38:46;;;;;;;3.83;1.93;;;12.90;58.10;;;;;;4984929;28;20226;-72
2021/05/05 00:41:13;;;;;;;2.53;1.53;;;12.90;58.00;;;;;;4987301;28;20258;-72
2021/05/05 00:43:40;;;;;;;2.83;2.10;;;12.90;57.70;;;;;;4983593;28;20245;-72
2021/05/05 00:46:07;;;;;;;2.60;1.83;;;12.90;58.10;;;;;;4987137;28;20228;-72
2021/05/05 00:48:34;;;;;;;4.23;1.80;;;12.90;58.50;;;;;;4983726;28;20244;-72
2021/05/05 00:51:03;;;;;;;3.17;1.97;;;12.80;58.90;;;;;;4987056;28;20541;-72
2021/05/05 00:53:31;;;;;;;3.17;2.20;;;12.70;59.20;;;;;;4986073;28;20221;-72
2021/05/05 00:55:58;;;;;;;4.03;1.80;;;12.70;59.20;;;;;;4982954;28;20255;-72
2021/05/05 00:58:25;;;;;;;2.40;1.80;;;12.60;59.50;;;;;;4987684;28;20227;-72
2021/05/05 01:00:52;;;;;;;5.60;2.03;;;12.60;59.50;;;;;;4986925;28;20239;-72
2021/05/05 01:03:21;;;;;;;8.80;1.97;;;12.60;59.80;;;;;;4987112;28;20224;-72
2021/05/05 01:05:51;;;;;;;5.20;2.10;;;12.60;60.00;;;;;;4982608;28;20228;-72
2021/05/05 01:08:21;;;;;;;3.50;1.60;;;12.70;60.70;;;;;;4979608;28;20388;-72
2021/05/05 01:10:50;;;;;;;3.50;1.90;;;12.60;61.60;;;;;;4983978;28;20221;-72
2021/05/05 01:13:17;;;;;;;4.37;1.83;;;12.60;62.40;;;;;;4985392;28;20228;-72
2021/05/05 01:15:45;;;;;;;5.23;1.83;;;12.70;62.40;;;;;;4984262;28;20213;-72
2021/05/05 01:18:11;;;;;;;1.70;1.60;;;12.60;62.20;;;;;;4990176;28;20753;-71
2021/05/05 01:20:39;;;;;;;3.50;2.13;;;12.60;62.50;;;;;;5022505;28;20575;-72
2021/05/05 01:23:06;;;;;;;2.43;2.00;;;12.50;63.10;;;;;;5024991;28;21204;-72
2021/05/05 01:25:34;;;;;;;2.07;1.67;;;12.50;63.50;;;;;;5022848;28;20812;-72
2021/05/05 01:28:02;;;;;;;2.70;1.60;;;12.50;63.70;;;;;;5024831;28;20235;-72
2021/05/05 01:30:29;;;;;;;3.23;2.20;;;12.40;64.00;;;;;;5005895;28;20223;-72
2021/05/05 01:32:56;;;;;;;2.53;2.10;;;12.40;64.30;;;;;;5020767;28;20219;-72
2021/05/05 01:35:24;;;;;;;3.63;2.10;;;12.40;64.80;;;;;;5022792;28;20216;-71
2021/05/05 01:37:52;;;;;;;2.23;1.80;;;12.40;65.30;;;;;;5024747;28;20314;-73
2021/05/05 01:40:31;;;;;;;4.00;2.20;;;12.40;65.30;;;;;;5022837;28;20220;-71
2021/05/05 01:43:00;;;;;;;3.83;1.90;;;12.40;65.90;;;;;;5025544;28;20219;-71
2021/05/05 01:45:27;;;;;;;4.03;2.33;;;12.30;65.80;;;;;;5022862;28;20231;-71
2021/05/05 01:47:58;;;;;;;13.93;2.93;;;12.30;65.20;;;;;;5007366;28;20263;-71
2021/05/05 01:50:26;;;;;;;2.60;1.90;;;12.30;65.50;;;;;;5004865;28;20278;-72
2021/05/05 01:52:54;;;;;;;3.40;2.30;;;12.20;66.00;;;;;;5007876;28;20215;-71
2021/05/05 01:55:21;;;;;;;3.13;2.33;;;12.20;66.60;;;;;;5025426;28;20214;-72
2021/05/05 01:57:48;;;;;;;3.47;2.30;;;12.20;66.60;;;;;;5007990;28;20245;-72
2021/05/05 02:00:21;;;;;;;5.67;2.80;;;12.20;67.00;;;;;;5022094;28;20526;-72
2021/05/05 02:02:48;;;;;;;3.30;2.73;;;12.20;67.30;;;;;;5018766;28;20216;-72
2021/05/05 02:05:15;;;;;;;2.57;2.37;;;12.20;67.40;;;;;;5000257;28;20223;-72
2021/05/05 02:07:48;;;;;;;9.87;3.17;;;12.20;67.00;;;;;;5010073;28;20246;-72
2021/05/05 02:10:18;;;;;;;3.07;2.17;;;12.10;66.40;;;;;;5024483;28;20215;-71
2021/05/05 02:12:45;;;;;;;4.10;2.67;;;12.10;66.60;;;;;;5025453;28;20226;-71
2021/05/05 02:15:14;;;;;;;3.47;2.60;;;12.10;66.50;;;;;;5022331;28;20231;-72
2021/05/05 02:17:41;;;;;;;3.70;2.40;;;12.20;66.60;;;;;;5006623;28;20280;-72
2021/05/05 02:20:10;;;;;;;3.67;2.30;;;12.20;66.60;;;;;;5022073;28;20243;-72
2021/05/05 02:22:40;;;;;;;4.50;2.47;;;12.20;66.60;;;;;;5023412;28;20305;-71
2021/05/05 02:25:09;;;;;;;5.23;2.77;;;12.20;66.60;;;;;;5020623;28;20676;-72
2021/05/05 02:27:37;;;;;;;3.10;2.80;;;12.20;67.00;;;;;;5005855;28;20234;-72
2021/05/05 02:30:09;;;;;;;5.67;2.73;;;12.30;67.30;;;;;;5012108;28;20210;-71
2021/05/05 02:32:38;;;;;;;4.10;3.10;;;12.30;67.50;;;;;;5021111;28;20220;-72
2021/05/05 02:35:07;;;;;;;2.97;2.70;;;12.30;67.30;;;;;;5021118;28;20211;-72
2021/05/05 02:37:35;;;;;;;4.23;2.60;;;12.30;67.60;;;;;;5024011;28;20241;-72
2021/05/05 02:40:06;;;;;;;5.17;2.87;;;12.40;68.40;;;;;;5021755;28;20293;-72
2021/05/05 02:42:34;;;;;;;6.87;2.77;;;12.30;67.50;;;;;;5027567;28;20214;-72
2021/05/05 02:45:00;;;;;;;4.17;3.10;;;12.30;67.30;;;;;;5021356;28;20215;-72
2021/05/05 02:47:28;;;;;;;5.47;2.80;;;12.30;67.70;;;;;;5023466;28;20294;-72
2021/05/05 02:49:55;;;;;;;4.10;3.13;;;12.30;68.00;;;;;;5007394;28;20215;-72
2021/05/05 02:52:22;;;;;;;5.37;2.90;;;12.30;68.50;;;;;;5003790;28;20234;-72
2021/05/05 02:54:49;;;;;;;17.73;3.00;;;12.30;68.50;;;;;;5020892;28;20663;-72
2021/05/05 02:57:16;;;;;;;4.10;2.83;;;12.30;68.20;;;;;;5024382;28;20245;-72
2021/05/05 02:59:44;;;;;;;5.67;3.17;;;12.20;67.80;;;;;;5024502;28;20243;-72
2021/05/05 03:02:11;;;;;;;5.57;3.20;;;12.20;67.90;;;;;;5021081;28;20230;-72
2021/05/05 03:04:38;;;;;;;2.50;2.30;;;12.20;68.40;;;;;;5015999;28;20219;-71
2021/05/05 03:07:05;;;;;;;3.37;2.73;;;12.20;68.90;;;;;;5028222;28;20223;-71
2021/05/05 03:09:32;;;;;;;8.07;3.00;;;12.20;69.20;;;;;;5024872;28;20313;-71
2021/05/05 03:12:00;;;;;;;3.43;2.90;;;12.20;69.30;;;;;;5028050;28;20219;-72
2021/05/05 03:14:28;;;;;;;4.60;3.03;;;12.30;69.60;;;;;;5025195;28;20216;-72
2021/05/05 03:16:57;;;;;;;5.60;3.20;;;12.30;69.70;;;;;;5031697;28;20222;-72
2021/05/05 03:19:24;;;;;;;3.90;3.00;;;12.20;69.00;;;;;;5024362;28;20250;-72
2021/05/05 03:21:51;;;;;;;3.50;2.87;;;12.10;69.00;;;;;;5011218;28;21092;-72
2021/05/05 03:24:18;;;;;;;4.10;3.23;;;12.00;69.40;;;;;;5011116;28;20268;-72
2021/05/05 03:26:45;;;;;;;5.17;2.90;;;12.00;69.70;;;;;;5020130;28;20208;-72
2021/05/05 03:29:12;;;;;;;4.40;2.97;;;12.00;69.80;;;;;;5010682;28;20321;-72
2021/05/05 03:31:42;;;;;;;6.60;3.20;;;12.00;69.90;;;;;;5020733;28;20223;-72
2021/05/05 03:34:09;;;;;;;3.90;3.20;;;12.00;70.40;;;;;;5024146;28;20227;-72
2021/05/05 03:36:36;;;;;;;7.30;3.00;;;12.00;71.00;;;;;;5014643;28;20226;-72
2021/05/05 03:39:06;;;;;;;6.27;3.10;;;12.00;71.20;;;;;;5027862;28;20225;-72
2021/05/05 03:41:33;;;;;;;2.97;2.77;;;11.90;71.50;;;;;;5028245;28;20218;-72
2021/05/05 03:44:00;;;;;;;3.30;2.63;;;11.90;71.70;;;;;;5027797;28;20211;-72
2021/05/05 03:46:27;;;;;;;6.67;3.20;;;11.90;71.80;;;;;;5006639;28;20215;-72
2021/05/05 03:48:54;;;;;;;4.27;3.00;;;11.80;71.70;;;;;;5027650;28;20246;-72
2021/05/05 03:51:21;;;;;;;3.90;2.63;;;11.70;71.90;;;;;;5025227;28;20274;-72
2021/05/05 03:53:48;;;;;;;3.53;3.10;;;11.60;72.20;;;;;;5010914;28;20628;-72
2021/05/05 03:56:15;;;;;;;4.93;2.97;;;11.60;72.50;;;;;;5027552;28;20218;-72
2021/05/05 03:58:41;;;;;;;5.40;3.47;;;11.60;72.60;;;;;;5023539;28;20255;-72
2021/05/05 04:01:08;;;;;;;3.57;2.83;;;11.70;72.70;;;;;;5010240;28;20219;-72
2021/05/05 04:03:35;;;;;;;5.87;2.70;;;11.70;72.40;;;;;;5023065;28;20223;-72
2021/05/05 04:06:02;;;;;;;3.80;2.87;;;11.70;72.20;;;;;;5023568;28;20231;-72
2021/05/05 04:08:29;;;;;;;5.87;3.33;;;11.70;72.30;;;;;;5027557;28;20243;-72
2021/05/05 04:10:55;;;;;;;6.43;3.53;;;11.70;72.40;;;;;;5026810;28;20225;-71
2021/05/05 04:13:22;;;;;;;6.03;3.37;;;11.70;72.40;;;;;;5014239;28;20227;-72
2021/05/05 04:16:07;;;;;;;3.63;3.27;;;11.70;72.40;;;;;;5019283;28;20248;-72
2021/05/05 04:18:53;;;;;;;4.30;3.27;;;11.70;72.30;;;;;;5023193;28;20239;-72
2021/05/05 04:21:38;;;;;;;5.50;3.17;;;11.70;72.40;;;;;;5024519;28;20214;-72
2021/05/05 04:24:23;;;;;;;7.83;3.70;;;11.80;72.20;;;;;;5011792;28;20261;-71
2021/05/05 04:26:50;;;;;;;3.23;2.93;;;11.80;72.40;;;;;;5008248;28;20223;-72
2021/05/05 04:29:18;;;;;;;5.23;3.50;;;11.80;73.20;;;;;;5025613;28;20334;-71
2021/05/05 04:31:47;;;;;;;3.40;2.70;;;11.80;73.70;;;;;;5023341;28;20220;-71
2021/05/05 04:34:14;;;;;;;4.43;2.97;;;11.90;74.00;;;;;;5024401;28;20722;-71
2021/05/05 04:36:42;;;;;;;4.43;3.10;;;11.90;73.90;;;;;;5016233;28;20208;-71
2021/05/05 04:39:08;;;;;;;6.90;3.10;;;11.90;73.60;;;;;;5007068;28;20226;-72
2021/05/05 04:41:35;;;;;;;5.30;3.33;;;11.90;73.00;;;;;;5008294;28;20227;-72
2021/05/05 04:44:03;;;;;;;7.03;3.13;;;11.90;72.70;;;;;;5023873;28;20216;-72
2021/05/05 04:46:30;;;;;;;7.90;4.07;;;12.00;72.60;;;;;;5016336;28;20623;-72
2021/05/05 04:48:57;;;;;;;6.00;3.63;;;12.00;72.40;;;;;;5023763;28;20560;-72
2021/05/05 04:51:23;;;;;;;5.33;3.70;;;12.10;72.10;;;;;;5026433;28;20257;-72
2021/05/05 04:53:50;;;;;;;4.43;3.20;;;12.20;71.70;;;;;;5025196;28;20226;-72
2021/05/05 04:56:17;;;;;;;3.60;3.30;;;12.20;71.90;;;;;;5022611;28;20215;-72
2021/05/05 04:58:44;;;;;;;7.67;3.33;;;12.30;72.70;;;;;;5014404;28;20232;-71
2021/05/05 05:01:11;;;;;;;6.50;3.47;;;12.50;72.80;;;;;;5022604;28;20211;-72
2021/05/05 05:03:38;;;;;;;5.80;3.50;;;12.50;72.40;;;;;;5025421;28;20243;-72
2021/05/05 05:06:05;;;;;;;5.87;3.60;;;12.60;72.50;;;;;;5022011;28;20219;-72
2021/05/05 05:08:31;;;;;;;5.47;3.83;;;12.70;72.70;;;;;;5023121;28;20647;-72
2021/05/05 05:10:58;;;;;;;4.53;3.13;;;12.90;73.00;;;;;;5025894;28;20210;-72
2021/05/05 05:13:25;;;;;;;5.60;3.50;;;13.10;73.00;;;;;;5022716;28;20219;-72
2021/05/05 05:15:52;;;;;;;6.73;3.60;;;13.20;72.80;;;;;;5025573;28;20218;-72
2021/05/05 05:18:18;;;;;;;3.47;3.13;;;13.30;72.90;;;;;;5004928;28;20274;-72
2021/05/05 05:20:45;;;;;;;4.83;3.90;;;13.50;72.70;;;;;;5025727;28;20710;-71
2021/05/05 05:23:12;;;;;;;4.97;3.77;;;13.70;72.60;;;;;;5004880;28;20223;-72
2021/05/05 05:25:38;;;;;;;7.77;3.80;;;14.00;72.20;;;;;;5021422;28;20600;-72
2021/05/05 05:28:06;;;;;;;5.57;3.87;;;14.60;71.10;;;;;;5022134;28;20239;-72
2021/05/05 05:30:33;;;;;;;5.57;3.77;;;15.30;69.80;;;;;;5004736;28;20216;-72
2021/05/05 05:32:59;;;;;;;5.03;3.87;;;15.80;68.60;;;;;;5020840;28;20220;-72
2021/05/05 05:35:27;;;;;;;5.00;3.70;;;16.20;67.30;;;;;;5021548;28;20215;-72
2021/05/05 05:37:54;;;;;;;5.10;3.77;;;16.60;66.10;;;;;;5004931;28;20215;-72
2021/05/05 05:40:21;;;;;;;7.33;4.10;;;16.90;64.90;;;;;;5025350;28;20221;-72
2021/05/05 05:42:48;;;;;;;7.40;4.33;;;17.00;64.50;;;;;;5007214;28;21579;-72
2021/05/05 05:45:18;;;;;;;7.50;4.23;;;17.10;64.10;;;;;;5004905;28;20227;-72
2021/05/05 05:47:46;;;;;;;7.83;4.60;;;17.20;64.00;;;;;;5021940;28;20216;-72
2021/05/05 05:50:14;;;;;;;7.70;3.43;;;17.20;63.90;;;;;;5017879;28;20266;-72
2021/05/05 05:52:42;;;;;;;6.70;3.90;;;17.30;63.40;;;;;;5021990;28;20220;-72
2021/05/05 05:55:11;;;;;;;4.33;3.73;;;17.40;62.80;;;;;;5025137;28;20281;-72
2021/05/05 05:57:39;;;;;;;7.63;4.47;;;17.50;62.80;;;;;;5012679;28;20263;-72
2021/05/05 06:00:12;;;;;;;4.70;3.90;;;17.60;62.90;;;;;;5024647;28;20227;-72
2021/05/05 06:02:40;;;;;;;7.50;3.83;;;17.70;62.20;;;;;;5007252;28;20227;-72
2021/05/05 06:05:08;;;;;;;8.67;4.73;;;17.90;61.50;;;;;;5013865;28;20223;-72
2021/05/05 06:07:35;;;;;;;6.40;3.97;;;18.00;60.30;;;;;;5014874;28;20604;-72
2021/05/05 06:10:04;;;;;;;6.77;3.73;;;18.00;61.20;;;;;;5023565;28;20321;-72
2021/05/05 06:12:31;;;;;;;8.63;3.83;;;18.10;60.00;;;;;;5005658;28;20282;-72
2021/05/05 06:14:59;;;;;;;5.53;3.10;;;18.30;59.70;;;;;;5023348;28;20306;-72
2021/05/05 06:17:26;;;;;;;8.07;4.07;;;18.40;60.00;;;;;;5023044;28;20287;-73
2021/05/05 06:19:53;;;;;;;4.20;3.80;;;18.60;59.00;;;;;;5022476;28;20258;-73
2021/05/05 06:22:20;;;;;;;7.83;3.53;;;18.80;59.00;;;;;;5022995;28;20224;-73
2021/05/05 06:24:47;;;;;;;5.67;4.03;;;19.00;58.10;;;;;;5023231;28;20222;-72
2021/05/05 06:27:14;;;;;;;6.30;4.17;;;19.10;57.60;;;;;;5024965;28;20218;-72
2021/05/05 06:29:41;;;;;;;6.70;4.30;;;19.30;57.60;;;;;;5004980;28;20695;-72
2021/05/05 06:32:08;;;;;;;7.37;4.40;;;19.40;56.50;;;;;;5006912;28;20540;-72
2021/05/05 06:34:35;;;;;;;8.23;4.63;;;19.50;56.40;;;;;;5006333;28;20659;-72
2021/05/05 06:37:03;;;;;;;6.43;4.37;;;19.50;55.60;;;;;;5024190;28;20219;-72
2021/05/05 06:39:31;;;;;;;6.73;4.23;;;19.70;55.70;;;;;;5018305;28;20223;-72
2021/05/05 06:41:59;;;;;;;9.13;3.90;;;19.70;55.20;;;;;;5026664;28;20579;-73
2021/05/05 06:44:26;;;;;;;7.80;4.10;;;19.90;54.00;;;;;;5029927;28;20596;-72
2021/05/05 06:46:56;;;;;;;6.53;4.57;;;19.90;53.70;;;;;;5026445;28;20302;-72
2021/05/05 06:49:24;;;;;;;6.53;4.37;;;19.90;54.00;;;;;;5027943;28;20258;-72
2021/05/05 06:51:52;;;;;;;7.87;5.33;;;20.00;53.60;;;;;;5028170;28;20668;-72
2021/05/05 06:54:19;;;;;;;9.07;4.40;;;20.10;53.60;;;;;;5026328;28;20226;-72
2021/05/05 06:56:46;;;;;;;7.33;4.43;;;20.20;54.00;;;;;;5026831;28;20224;-72
2021/05/05 06:59:13;;;;;;;9.43;4.50;;;20.40;53.80;;;;;;5028384;28;20276;-73
2021/05/05 07:01:40;;;;;;;6.63;3.80;;;20.60;53.50;;;;;;5024822;28;20216;-72
2021/05/05 07:04:10;;;;;;;7.80;4.00;;;20.80;53.10;;;;;;5014896;28;20247;-73
2021/05/05 07:06:37;;;;;;;7.27;4.20;;;21.00;52.30;;;;;;5024849;28;20254;-72
2021/05/05 07:09:07;;;;;;;7.13;4.33;;;21.10;52.20;;;;;;5027009;28;20318;-72
2021/05/05 07:11:37;;;;;;;7.97;4.57;;;21.20;51.70;;;;;;5016759;28;20222;-72
2021/05/05 07:14:06;;;;;;;8.33;4.37;;;21.30;51.60;;;;;;5007628;28;20216;-73
2021/05/05 07:16:34;;;;;;;8.87;3.90;;;21.40;51.50;;;;;;5024237;28;20643;-72
2021/05/05 07:19:02;;;;;;;10.03;4.10;;;21.40;52.30;;;;;;5018357;28;20247;-72
2021/05/05 07:21:31;;;;;;;6.50;3.70;;;21.50;50.90;;;;;;5015780;28;20363;-72
2021/05/05 07:23:58;;;;;;;6.27;3.80;;;21.50;50.70;;;;;;5028531;28;20215;-71
2021/05/05 07:26:25;;;;;;;6.60;3.87;;;21.50;50.20;;;;;;5027421;28;20219;-71
2021/05/05 07:28:53;;;;;;;5.00;3.43;;;21.50;49.00;;;;;;5014762;28;20270;-71
2021/05/05 07:31:20;;;;;;;5.93;3.03;;;21.40;47.20;;;;;;5007942;28;20705;-71
2021/05/05 07:33:49;;;;;;;5.00;3.30;;;21.30;47.20;;;;;;5023280;28;20219;-72
2021/05/05 07:36:19;;;;;;;4.80;3.00;;;21.30;48.80;;;;;;5021085;28;20223;-72
2021/05/05 07:46:55;;;;;;;5.63;3.50;;;21.80;48.20;;;;;;5023764;28;20220;-72
2021/05/05 07:49:23;;;;;;;4.77;3.13;;;21.90;48.70;;;;;;5025063;28;20246;-72
2021/05/05 07:51:50;;;;;;;5.47;2.97;;;22.20;48.30;;;;;;5009531;28;20200;-72
2021/05/05 07:54:16;;;;;;;4.17;2.70;;;22.40;46.60;;;;;;5025959;28;20211;-72
2021/05/05 07:56:43;;;;;;;7.90;3.20;;;22.50;45.50;;;;;;5025488;28;20270;-72
2021/05/05 07:59:09;;;;;;;7.47;3.67;;;22.40;45.60;;;;;;5015619;28;20615;-72
2021/05/05 08:01:37;;;;;;;5.07;2.83;;;22.50;46.10;;;;;;5005566;28;20560;-72
2021/05/05 08:04:05;;;;;;;5.03;2.93;;;22.70;45.50;;;;;;5024225;28;20211;-72
2021/05/05 08:06:32;;;;;;;4.10;3.00;;;22.70;44.30;;;;;;5022381;28;20318;-72
2021/05/05 08:08:59;;;;;;;6.37;2.90;;;22.70;44.70;;;;;;5007074;28;20250;-73
2021/05/05 08:11:26;;;;;;;5.67;3.17;;;22.70;45.50;;;;;;5024168;28;20226;-72
2021/05/05 08:13:53;;;;;;;5.20;3.03;;;22.90;44.70;;;;;;5007074;28;20219;-72
2021/05/05 08:16:20;;;;;;;3.27;2.60;;;22.90;44.30;;;;;;5024114;28;20211;-72
2021/05/05 08:18:49;;;;;;;4.17;3.07;;;22.90;44.70;;;;;;5024055;28;20415;-73
2021/05/05 08:21:16;;;;;;;4.43;3.33;;;23.10;45.20;;;;;;5023778;28;20227;-72
2021/05/05 08:23:43;;;;;;;8.20;3.03;;;23.30;45.80;;;;;;5023484;28;20219;-72
2021/05/05 08:26:10;;;;;;;8.17;3.20;;;23.30;42.80;;;;;;5013077;28;20258;-72
2021/05/05 08:28:37;;;;;;;3.50;2.90;;;23.00;43.10;;;;;;5024081;28;20239;-72
2021/05/05 08:31:05;;;;;;;6.27;3.10;;;22.90;43.90;;;;;;5023390;28;20211;-72
2021/05/05 08:33:33;;;;;;;7.03;2.70;;;23.00;44.40;;;;;;5014867;28;20618;-73
2021/05/05 08:36:00;;;;;;;5.70;2.93;;;23.10;44.80;;;;;;5023926;28;20226;-72
2021/05/05 08:38:27;;;;;;;4.93;2.87;;;23.20;43.30;;;;;;5023599;28;20215;-72
2021/05/05 08:40:53;;;;;;;5.30;2.90;;;23.20;45.00;;;;;;5023669;28;20554;-72
2021/05/05 08:43:20;;;;;;;4.07;2.73;;;23.40;45.30;;;;;;5008098;28;20297;-72
2021/05/05 08:45:49;;;;;;;5.87;2.77;;;23.70;44.20;;;;;;5023449;28;20219;-72
2021/05/05 08:48:19;;;;;;;6.37;2.60;;;23.80;44.60;;;;;;5023980;28;20223;-72
2021/05/05 08:50:46;;;;;;;5.37;2.93;;;24.00;44.10;;;;;;5026726;28;20226;-72
2021/05/05 08:53:13;;;;;;;4.27;2.93;;;24.10;43.60;;;;;;5023243;28;20215;-72
2021/05/05 08:55:40;;;;;;;2.77;2.33;;;24.20;41.50;;;;;;5023641;28;20216;-72
2021/05/05 08:58:06;;;;;;;5.70;2.20;;;24.10;41.70;;;;;;5023420;28;20222;-73
2021/05/05 09:00:38;;;;;;;4.30;2.50;;;24.20;42.30;;;;;;5008157;28;20556;-72
2021/05/05 09:03:07;;;;;;;4.93;2.73;;;24.30;42.40;;;;;;5014091;28;20219;-72
2021/05/05 09:05:47;;;;;;;5.60;2.80;;;24.30;42.70;;;;;;5021446;28;20731;-72
2021/05/05 09:08:14;;;;;;;4.30;2.47;;;24.40;43.20;;;;;;5004668;28;20551;-72
2021/05/05 09:11:07;;;;;;;6.33;2.67;;;24.50;42.50;;;;;;5024567;28;20557;-72
2021/05/05 09:13:43;;;;;;;3.77;2.70;;;24.60;41.80;;;;;;5017223;28;20228;-72
2021/05/05 09:16:12;;;;;;;4.80;2.30;;;24.70;40.90;;;;;;5017373;28;20223;-72
2021/05/05 09:19:09;;;;;;;6.33;2.40;;;24.80;41.60;;;;;;5022574;28;20525;-73
2021/05/05 09:21:44;;;;;;;5.50;2.40;;;25.00;42.00;;;;;;5102318;27;20598;-72
2021/05/05 09:24:14;;;;;;;3.30;2.00;;;25.20;42.30;;;;;;5099561;28;20299;-72
2021/05/05 09:26:41;;;;;;;3.87;2.30;;;25.30;41.20;;;;;;5100677;28;20212;-72
2021/05/05 09:29:08;;;;;;;7.87;2.73;;;25.50;40.80;;;;;;5097781;28;20209;-72
2021/05/05 09:31:37;;;;;;;5.60;2.63;;;25.60;40.30;;;;;;5098785;28;20227;-72
2021/05/05 09:34:11;;;;;;;3.40;2.57;;;25.60;41.30;;;;;;5098037;28;20287;-72
2021/05/05 09:37:01;;;;;;;6.27;2.80;;;25.60;40.20;;;;;;5093902;28;20544;-72
2021/05/05 09:39:31;;;;;;;3.37;2.30;;;25.50;41.10;;;;;;5099665;28;20220;-72
2021/05/05 09:41:58;;;;;;;6.60;2.50;;;25.50;40.70;;;;;;5098480;28;20213;-72
2021/05/05 09:44:26;;;;;;;6.20;2.10;;;25.60;40.60;;;;;;5101230;28;20223;-72
2021/05/05 09:46:58;;;;;;;4.70;2.73;;;25.70;39.80;;;;;;5100190;28;20216;-72
2021/05/05 09:49:28;;;;;;;2.77;2.33;;;25.70;39.60;;;;;;5094079;28;20213;-72
2021/05/05 09:51:59;;;;;;;3.63;2.23;;;25.80;40.70;;;;;;5094323;28;20270;-72
2021/05/05 09:54:30;;;;;;;3.10;2.20;;;25.90;40.30;;;;;;5101018;28;20270;-72
2021/05/05 09:57:18;;;;;;;3.10;2.27;;;25.80;40.30;;;;;;5099956;28;20213;-72
2021/05/05 10:00:06;;;;;;;4.87;2.23;;;25.80;40.50;;;;;;5093023;28;20576;-72
2021/05/05 10:02:43;;;;;;;3.63;2.00;;;25.90;40.00;;;;;;5097670;28;20645;-72
2021/05/05 10:05:13;;;;;;;4.17;2.30;;;26.00;39.70;;;;;;5093040;28;20655;-73
2021/05/05 10:07:52;;;;;;;4.57;1.93;;;26.10;40.60;;;;;;5096713;28;20683;-72
2021/05/05 10:10:20;;;;;;;8.60;2.27;;;26.10;39.20;;;;;;5098935;28;20223;-72
2021/05/05 10:12:48;;;;;;;4.43;1.90;;;26.20;40.50;;;;;;5099741;28;20653;-72
2021/05/05 10:15:16;;;;;;;5.10;2.50;;;26.20;39.80;;;;;;5098648;28;20228;-71
2021/05/05 10:18:11;;;;;;;4.27;2.27;;;26.20;39.20;;;;;;5096477;28;20254;-72
2021/05/05 10:20:52;;;;;;;3.90;2.37;;;26.30;39.40;;;;;;5098718;28;20259;-72
2021/05/05 10:23:19;;;;;;;5.50;2.47;;;26.40;40.30;;;;;;5096919;28;20217;-72
2021/05/05 10:25:49;;;;;;;4.37;2.50;;;26.50;39.30;;;;;;5093858;28;20274;-72
2021/05/05 10:28:17;;;;;;;2.83;2.13;;;26.40;38.80;;;;;;5106189;28;20213;-73
2021/05/05 10:30:45;;;;;;;4.87;2.53;;;26.30;39.30;;;;;;5100680;28;20277;-72
2021/05/05 10:33:23;;;;;;;4.83;2.50;;;26.40;39.10;;;;;;5085078;28;20239;-72
2021/05/05 10:35:50;;;;;;;5.80;2.43;;;26.40;39.40;;;;;;5082187;28;20221;-72
2021/05/05 10:38:33;;;;;;;4.23;2.60;;;26.40;39.30;;;;;;5084429;28;20225;-72
2021/05/05 10:41:10;;;;;;;4.53;2.47;;;26.40;40.10;;;;;;5079058;28;20233;-72
2021/05/05 10:43:57;;;;;;;7.67;2.40;;;26.50;40.80;;;;;;5081083;28;20554;-72
2021/05/05 10:46:38;;;;;;;5.57;2.70;;;26.60;40.50;;;;;;5079445;28;20273;-72
2021/05/05 10:49:11;;;;;;;3.47;2.80;;;26.70;40.70;;;;;;5080659;28;20241;-72
2021/05/05 10:51:44;;;;;;;6.10;2.60;;;26.90;40.50;;;;;;5084437;28;20217;-72
2021/05/05 10:54:15;;;;;;;8.70;2.50;;;26.90;39.90;;;;;;5085562;28;20221;-72
2021/05/05 10:56:46;;;;;;;4.47;2.20;;;27.00;39.60;;;;;;5078517;28;20222;-72
2021/05/05 10:59:13;;;;;;;7.37;2.37;;;27.10;39.30;;;;;;5079885;28;20218;-72
2021/05/05 11:01:47;;;;;;;7.53;3.27;;;27.00;39.50;;;;;;5088861;28;20575;-72
2021/05/05 11:04:15;;;;;;;5.73;3.17;;;26.90;39.80;;;;;;5081429;28;20285;-72
2021/05/05 11:06:53;;;;;;;5.10;2.40;;;26.80;40.00;;;;;;5084237;28;20279;-72
2021/05/05 11:09:22;;;;;;;5.37;2.60;;;26.50;39.80;;;;;;5083624;28;20549;-72
2021/05/05 11:11:53;;;;;;;3.87;2.47;;;26.40;40.90;;;;;;5085575;28;20636;-72
2021/05/05 11:14:32;;;;;;;5.93;2.53;;;26.30;41.30;;;;;;5082763;28;20212;-72
2021/05/05 11:17:03;;;;;;;4.33;2.13;;;26.50;40.90;;;;;;5080639;28;20305;-72
2021/05/05 11:19:36;;;;;;;4.47;2.43;;;26.50;40.60;;;;;;5084169;28;20691;-72
2021/05/05 11:22:03;;;;;;;6.77;2.30;;;26.40;40.60;;;;;;5084640;28;20249;-72
2021/05/05 11:24:33;;;;;;;3.50;2.37;;;26.40;40.80;;;;;;5083624;28;20209;-72
2021/05/05 11:27:01;;;;;;;5.37;2.47;;;26.60;41.20;;;;;;5084709;28;20683;-72
2021/05/05 11:29:51;;;;;;;3.50;2.43;;;26.90;40.10;;;;;;5083290;28;20618;-73
2021/05/05 11:32:24;;;;;;;4.77;2.60;;;27.40;39.30;;;;;;5085248;28;20296;-73
2021/05/05 11:34:55;;;;;;;5.90;2.63;;;27.30;38.80;;;;;;5082619;28;20214;-73
2021/05/05 11:37:24;;;;;;;4.27;2.50;;;27.00;40.00;;;;;;5084798;28;20217;-73
2021/05/05 11:40:03;;;;;;;8.43;2.43;;;26.60;41.00;;;;;;5081198;28;20240;-73
2021/05/05 11:42:36;;;;;;;6.40;2.53;;;26.20;42.30;;;;;;5092717;28;20218;-73
2021/05/05 11:45:14;;;;;;;6.83;3.23;;;25.90;42.20;;;;;;5080270;28;20210;-73
2021/05/05 11:47:44;;;;;;;8.73;2.87;;;25.70;42.10;;;;;;5081949;28;20213;-74
2021/05/05 11:50:14;;;;;;;5.10;2.90;;;25.60;42.50;;;;;;5084568;28;20214;-74
2021/05/05 11:52:43;;;;;;;4.30;2.63;;;25.40;41.90;;;;;;5077796;28;20316;-73
2021/05/05 11:55:10;;;;;;;3.73;2.40;;;25.30;42.90;;;;;;5076944;28;20224;-73
2021/05/05 11:57:38;;;;;;;4.13;2.10;;;25.20;43.10;;;;;;5077199;28;20213;-73
2021/05/05 12:00:11;;;;;;;3.57;2.27;;;25.10;43.60;;;;;;5077565;28;20245;-73
2021/05/05 12:03:05;;;;;;;3.00;1.80;;;25.00;44.40;;;;;;5087821;28;20235;-74
2021/05/05 12:05:33;;;;;;;3.50;2.17;;;24.90;44.40;;;;;;5073287;28;20222;-74
2021/05/05 12:08:05;;;;;;;6.07;2.20;;;24.80;45.60;;;;;;5084731;28;20213;-74
2021/05/05 12:10:42;;;;;;;7.93;2.20;;;24.70;45.50;;;;;;5081024;28;20225;-74
2021/05/05 12:13:18;;;;;;;3.37;2.10;;;24.50;46.30;;;;;;5079932;28;20217;-74
2021/05/05 12:15:57;;;;;;;5.67;2.33;;;24.30;46.50;;;;;;5079981;28;20423;-74
2021/05/05 12:18:33;;;;;;;4.83;1.60;;;24.20;47.10;;;;;;5078019;28;20540;-74
2021/05/05 12:21:22;;;;;;;4.50;2.10;;;24.10;47.00;;;;;;5081933;28;20245;-72
2021/05/05 12:23:50;;;;;;;8.97;1.97;;;24.10;47.60;;;;;;5087513;28;20202;-71
2021/05/05 12:26:49;;;;;;;13.07;10.77;;;24.10;46.20;;;;;;5080883;28;20543;-71
2021/05/05 12:29:16;;;;;;;9.00;5.17;;;24.30;46.50;;;;;;5014355;28;20234;-71
2021/05/05 12:31:45;;;;;;;3.73;1.90;;;24.30;46.50;;;;;;5011664;28;20242;-72
2021/05/05 12:34:12;;;;;;;20.70;9.87;;;24.40;46.10;;;;;;5005573;28;20214;-72
2021/05/05 12:36:41;;;;;;;9.97;6.17;;;24.50;46.10;;;;;;5021367;28;20394;-71
2021/05/05 12:39:13;;;;;;;23.57;14.10;;;24.70;46.30;;;;;;5055166;28;20213;-71
2021/05/05 12:41:50;;;;;;;6.17;2.23;;;24.80;46.00;;;;;;5083140;28;20233;-71
2021/05/05 12:44:18;;;;;;;5.33;1.20;;;25.00;45.30;;;;;;5079082;28;20205;-72
2021/05/05 12:46:57;;;;;;;3.93;1.40;;;25.20;45.40;;;;;;5077094;28;20358;-72
2021/05/05 12:49:34;;;;;;;4.37;1.07;;;25.10;45.00;;;;;;5080455;28;20201;-72
2021/05/05 12:52:06;;;;;;;5.27;1.60;;;25.00;44.40;;;;;;5080615;28;20577;-72
2021/05/05 12:54:43;;;;;;;4.30;1.30;;;24.90;44.90;;;;;;5079263;28;20294;-72
2021/05/05 12:57:17;;;;;;;2.97;1.30;;;24.80;44.20;;;;;;5089379;28;20223;-71
2021/05/05 12:59:47;;;;;;;2.00;1.23;;;24.70;44.40;;;;;;5074225;28;20314;-71
2021/05/05 13:02:23;;;;;;;3.73;1.43;;;24.60;44.10;;;;;;5081389;28;20217;-71
2021/05/05 13:05:03;;;;;;;3.87;1.40;;;24.50;43.70;;;;;;5073571;28;20209;-71
2021/05/05 13:07:41;;;;;;;4.73;1.27;;;24.40;43.80;;;;;;5077366;28;20213;-71